createdAt,value
2018-10-06T00:09:27.708Z,9.60
2018-10-06T00:14:32.150Z,9.53
2018-10-06T00:19:36.715Z,10.30
2018-10-06T00:24:41.329Z,12.18
2018-10-06T00:29:46.248Z,12.13
2018-10-06T00:34:50.863Z,9.35
2018-10-06T00:39:55.412Z,10.35
2018-10-06T00:44:59.911Z,11.80
2018-10-06T00:50:05.124Z,12.40
2018-10-06T00:55:09.568Z,10.80
2018-10-06T01:00:14.182Z,10.20
2018-10-06T01:05:18.855Z,9.23
2018-10-06T01:10:23.368Z,9.98
2018-10-06T01:15:28.112Z,10.30
2018-10-06T01:20:32.750Z,9.78
2018-10-06T01:25:37.130Z,10.35
2018-10-06T01:30:41.611Z,9.23
2018-10-06T01:35:46.129Z,10.82
2018-10-06T01:40:51.306Z,9.85
2018-10-06T01:45:55.692Z,9.98
2018-10-06T01:51:00.119Z,9.28
2018-10-06T01:56:04.781Z,10.03
2018-10-06T02:01:09.224Z,14.15
2018-10-06T02:06:14.397Z,10.93
2018-10-06T02:11:19.040Z,9.58
2018-10-06T02:16:23.709Z,9.10
2018-10-06T02:21:28.297Z,8.50
2018-10-06T02:26:32.946Z,8.28
2018-10-06T02:31:37.517Z,8.48
2018-10-06T02:36:42.287Z,8.45
2018-10-06T02:41:46.768Z,7.97
2018-10-06T02:46:51.122Z,8.00
2018-10-06T02:51:55.519Z,7.87
2018-10-06T02:57:00.079Z,8.65
2018-10-06T03:02:04.807Z,9.75
2018-10-06T03:07:09.319Z,10.40
2018-10-06T03:12:14.283Z,12.37
2018-10-06T03:17:18.915Z,11.53
2018-10-06T03:22:23.374Z,10.75
2018-10-06T03:27:28.621Z,10.68
2018-10-06T03:32:33.141Z,11.63
2018-10-06T03:37:37.603Z,12.20
2018-10-06T03:42:42.076Z,12.65
2018-10-06T03:47:46.739Z,16.12
2018-10-06T03:52:51.377Z,15.58
2018-10-06T03:57:55.944Z,17.80
2018-10-06T04:03:00.385Z,17.65
2018-10-06T04:08:05.063Z,16.67
2018-10-06T04:13:10.136Z,17.20
2018-10-06T04:18:14.607Z,14.60
2018-10-06T04:23:20.273Z,15.03
2018-10-06T04:28:24.839Z,14.28
2018-10-06T04:33:29.320Z,14.93
2018-10-06T04:38:33.747Z,14.73
2018-10-06T04:43:38.429Z,15.43
2018-10-06T04:48:43.125Z,16.12
2018-10-06T04:53:47.979Z,15.50
2018-10-06T04:58:52.723Z,14.80
2018-10-06T05:03:58.153Z,14.90
2018-10-06T05:09:03.335Z,16.42
2018-10-06T05:14:08.331Z,16.10
2018-10-06T05:19:12.971Z,14.87
2018-10-06T05:24:17.427Z,13.65
2018-10-06T05:29:22.882Z,14.73
2018-10-06T05:34:27.539Z,15.03
2018-10-06T05:39:32.855Z,14.40
2018-10-06T05:44:37.606Z,15.58
2018-10-06T05:49:42.253Z,15.25
2018-10-06T05:54:46.972Z,15.95
2018-10-06T05:59:55.815Z,15.35
2018-10-06T06:05:00.447Z,13.55
2018-10-06T06:10:08.963Z,15.18
2018-10-06T06:15:13.509Z,13.83
2018-10-06T06:20:18.865Z,14.95
2018-10-06T06:25:23.433Z,13.22
2018-10-06T06:30:27.945Z,14.13
2018-10-06T06:35:33.108Z,15.05
2018-10-06T06:40:37.812Z,14.23
2018-10-06T06:45:42.242Z,17.95
2018-10-06T06:50:46.743Z,15.80
2018-10-06T06:55:51.345Z,19.92
2018-10-06T07:00:56.170Z,17.20
2018-10-06T07:06:01.901Z,15.88
2018-10-06T07:11:06.632Z,16.27
2018-10-06T07:16:10.953Z,15.38
2018-10-06T07:21:15.982Z,18.40
2018-10-06T07:26:21.574Z,15.93
2018-10-06T07:31:26.215Z,14.47
2018-10-06T07:36:31.042Z,13.20
2018-10-06T07:41:35.656Z,14.15
2018-10-06T07:46:40.378Z,15.03
2018-10-06T07:51:44.914Z,13.10
2018-10-06T07:56:49.484Z,14.68
2018-10-06T08:01:54.467Z,12.78
2018-10-06T08:06:59.591Z,14.23
2018-10-06T08:12:04.318Z,12.80
2018-10-06T08:17:09.745Z,12.82
2018-10-06T08:22:14.864Z,13.25
2018-10-06T08:27:20.162Z,11.43
2018-10-06T08:32:25.199Z,12.28
2018-10-06T08:37:35.404Z,12.68
2018-10-06T08:42:40.925Z,12.10
2018-10-06T08:47:47.537Z,11.93
2018-10-06T08:52:58.102Z,11.93
2018-10-06T08:58:02.820Z,12.00
2018-10-06T09:03:09.994Z,12.68
2018-10-06T09:08:23.516Z,14.03
2018-10-06T09:13:33.203Z,14.28
2018-10-06T09:18:39.632Z,13.48
2018-10-06T09:23:47.625Z,14.73
2018-10-06T09:28:52.269Z,14.60
2018-10-06T09:33:58.103Z,13.35
2018-10-06T09:39:04.692Z,12.68
2018-10-06T09:44:09.763Z,11.55
2018-10-06T09:49:14.329Z,13.00
2018-10-06T09:59:39.157Z,9.98
2018-10-06T10:04:45.780Z,11.93
2018-10-06T10:09:58.191Z,10.18
2018-10-06T10:15:04.609Z,9.18
2018-10-06T10:20:09.256Z,8.90
2018-10-06T10:25:14.200Z,9.68
2018-10-06T10:30:18.939Z,7.90
2018-10-06T10:35:24.124Z,8.55
2018-10-06T10:40:29.492Z,6.92
2018-10-06T10:45:33.934Z,7.20
2018-10-06T10:50:38.609Z,7.47
2018-10-06T11:01:12.010Z,8.50
2018-10-06T11:06:16.461Z,8.58
2018-10-06T11:11:21.494Z,8.68
2018-10-06T11:16:26.480Z,9.63
2018-10-06T11:21:31.701Z,8.78
2018-10-06T11:26:36.285Z,9.18
2018-10-06T11:31:41.045Z,9.53
2018-10-06T11:36:45.274Z,8.93
2018-10-06T11:41:49.540Z,8.93
2018-10-06T11:46:55.953Z,9.93
2018-10-06T11:52:25.186Z,9.70
2018-10-06T11:57:29.595Z,9.08
2018-10-06T12:02:34.048Z,7.85
2018-10-06T12:07:44.801Z,8.10
2018-10-06T12:12:54.730Z,7.08
2018-10-06T12:18:03.933Z,6.60
2018-10-06T12:23:12.815Z,6.80
2018-10-06T12:28:26.333Z,6.03
2018-10-06T12:33:34.659Z,6.03
2018-10-06T12:38:41.967Z,6.97
2018-10-06T12:43:49.085Z,6.35
2018-10-06T12:48:53.626Z,5.92
2018-10-06T12:54:02.421Z,8.30
2018-10-06T12:59:12.095Z,8.60
2018-10-06T13:04:24.563Z,8.33
2018-10-06T13:09:29.359Z,8.35
2018-10-06T13:14:34.025Z,9.05
2018-10-06T13:19:39.750Z,9.78
2018-10-06T13:24:44.408Z,9.63
2018-10-06T13:29:48.875Z,9.78
2018-10-06T13:34:53.745Z,10.48
2018-10-06T13:39:58.707Z,10.82
2018-10-06T13:45:03.464Z,10.45
2018-10-06T13:50:08.143Z,9.50
2018-10-06T13:55:12.899Z,8.63
2018-10-06T14:00:17.637Z,8.43
2018-10-06T14:05:22.800Z,8.25
2018-10-06T14:10:28.443Z,8.03
2018-10-06T14:15:33.086Z,7.92
2018-10-06T14:20:37.739Z,7.47
2018-10-06T14:25:44.493Z,7.40
2018-10-06T14:30:49.384Z,7.90
2018-10-06T14:35:54.727Z,8.05
2018-10-06T14:41:00.389Z,8.25
2018-10-06T14:46:11.010Z,6.72
2018-10-06T14:51:15.468Z,7.62
2018-10-06T14:56:21.246Z,7.30
2018-10-06T15:01:25.772Z,8.05
2018-10-06T15:06:31.061Z,7.62
2018-10-06T15:11:35.937Z,8.03
2018-10-06T15:16:40.747Z,7.30
2018-10-06T15:21:44.996Z,7.78
2018-10-06T15:26:49.633Z,7.55
2018-10-06T15:31:54.403Z,7.72
2018-10-06T15:36:59.113Z,8.50
2018-10-06T15:42:05.062Z,7.83
2018-10-06T15:47:26.184Z,8.00
2018-10-06T15:52:31.432Z,7.58
2018-10-06T15:57:35.900Z,7.47
2018-10-06T16:02:40.451Z,9.15
2018-10-06T16:07:45.851Z,9.40
2018-10-06T16:12:51.588Z,7.87
2018-10-06T16:17:57.246Z,7.20
2018-10-06T16:23:02.523Z,6.05
2018-10-06T16:28:07.015Z,7.25
2018-10-06T16:33:11.461Z,9.13
2018-10-06T16:38:16.605Z,7.72
2018-10-06T16:43:21.286Z,16.12
2018-10-06T16:48:26.222Z,6.92
2018-10-06T16:53:31.094Z,6.67
2018-10-06T16:58:35.689Z,6.53
2018-10-06T17:03:41.711Z,6.15
2018-10-06T17:08:46.259Z,24.37
2018-10-06T17:13:50.880Z,6.45
2018-10-06T17:18:55.318Z,4.85
2018-10-06T17:23:59.759Z,5.00
2018-10-06T17:29:04.409Z,4.85
2018-10-06T17:34:09.120Z,5.10
2018-10-06T17:39:13.538Z,4.83
2018-10-06T17:44:18.307Z,5.12
2018-10-06T17:49:22.927Z,6.08
2018-10-06T17:54:27.235Z,4.60
2018-10-06T17:59:31.996Z,5.30
2018-10-06T18:04:36.317Z,4.95
2018-10-06T18:09:41.878Z,6.28
2018-10-06T18:14:46.430Z,5.47
2018-10-06T18:19:52.037Z,6.25
2018-10-06T18:24:56.652Z,11.40
2018-10-06T18:30:01.233Z,7.55
2018-10-06T18:35:05.912Z,6.22
2018-10-06T18:40:11.119Z,5.80
2018-10-06T18:45:15.607Z,6.80
2018-10-06T18:50:20.700Z,5.55
2018-10-06T18:55:25.865Z,5.95
2018-10-06T19:00:30.409Z,6.40
2018-10-06T19:05:35.091Z,31.45
2018-10-06T19:10:40.578Z,20.50
2018-10-06T19:15:45.910Z,18.05
2018-10-06T19:20:50.303Z,13.95
2018-10-06T19:25:55.710Z,20.17
2018-10-06T19:31:00.292Z,17.00
2018-10-06T19:36:08.823Z,12.03
2018-10-06T19:41:13.372Z,46.73
2018-10-06T19:46:18.517Z,52.17
2018-10-06T19:51:23.180Z,36.42
2018-10-06T19:56:27.761Z,20.85
2018-10-06T20:01:32.316Z,11.00
2018-10-06T20:06:36.875Z,8.95
2018-10-06T20:11:41.441Z,8.00
2018-10-06T20:16:46.004Z,8.05
2018-10-06T20:21:51.037Z,8.40
2018-10-06T20:26:55.754Z,8.80
2018-10-06T20:32:00.518Z,7.17
2018-10-06T20:37:05.729Z,8.43
2018-10-06T20:42:10.376Z,8.25
2018-10-06T20:47:15.147Z,7.85
2018-10-06T20:52:20.244Z,8.20
2018-10-06T20:57:25.015Z,7.75
2018-10-06T21:02:29.434Z,7.70
2018-10-06T21:07:35.054Z,8.93
2018-10-06T21:12:39.926Z,7.97
2018-10-06T21:17:45.086Z,7.22
2018-10-06T21:22:50.917Z,6.67
2018-10-06T21:27:57.065Z,6.90
2018-10-06T21:33:02.137Z,7.00
2018-10-06T21:38:07.236Z,7.33
2018-10-06T21:43:11.777Z,7.47
2018-10-06T21:48:16.559Z,6.83
2018-10-06T21:53:21.415Z,6.08
2018-10-06T21:58:26.244Z,6.87
2018-10-06T22:03:30.903Z,8.18
2018-10-06T22:08:35.648Z,8.95
2018-10-06T22:13:40.805Z,8.80
2018-10-06T22:18:45.538Z,8.88
2018-10-06T22:23:50.759Z,8.93
2018-10-06T22:28:55.872Z,8.93
2018-10-06T22:34:02.629Z,9.13
2018-10-06T22:39:12.680Z,8.93
2018-10-06T22:44:18.450Z,8.48
2018-10-06T22:49:24.039Z,8.20
2018-10-06T22:54:28.931Z,8.65
2018-10-06T22:59:34.897Z,7.67
2018-10-06T23:04:40.408Z,7.65
2018-10-06T23:09:45.801Z,6.22
2018-10-06T23:14:50.423Z,7.58
2018-10-06T23:19:55.140Z,7.17
2018-10-06T23:25:00.183Z,7.47
2018-10-06T23:30:05.922Z,7.12
2018-10-06T23:35:10.467Z,6.20
2018-10-06T23:40:15.895Z,6.97
2018-10-06T23:45:20.523Z,6.12
2018-10-06T23:50:25.319Z,6.35
2018-10-06T23:55:30.567Z,7.85
